createdAt,value
2023-05-07T00:02:17.085Z,15.99
2023-05-07T00:04:45.305Z,15.95
2023-05-07T00:07:12.858Z,16.00
2023-05-07T00:09:40.997Z,15.98
2023-05-07T00:12:08.659Z,15.88
2023-05-07T00:14:36.147Z,15.87
2023-05-07T00:17:03.561Z,15.94
2023-05-07T00:19:31.107Z,15.97
2023-05-07T00:21:59.388Z,15.92
2023-05-07T00:24:26.960Z,15.87
2023-05-07T00:26:54.466Z,15.90
2023-05-07T00:29:22.025Z,15.90
2023-05-07T00:31:51.038Z,15.89
2023-05-07T00:34:18.666Z,15.86
2023-05-07T00:36:46.258Z,15.85
2023-05-07T00:39:13.957Z,15.78
2023-05-07T00:41:41.622Z,15.79
2023-05-07T00:44:09.732Z,15.85
2023-05-07T00:46:37.359Z,15.82
2023-05-07T00:49:06.235Z,15.80
2023-05-07T00:51:34.461Z,15.78
2023-05-07T00:54:03.846Z,15.77
2023-05-07T00:56:32.280Z,15.69
2023-05-07T00:59:00.267Z,15.70
2023-05-07T01:01:27.883Z,15.73
2023-05-07T01:03:55.512Z,15.71
2023-05-07T01:06:26.017Z,15.66
2023-05-07T01:08:54.165Z,15.70
2023-05-07T01:11:22.432Z,15.60
2023-05-07T01:13:51.491Z,15.55
2023-05-07T01:16:19.058Z,15.50
2023-05-07T01:18:49.235Z,15.57
2023-05-07T01:21:18.827Z,15.52
2023-05-07T01:23:47.223Z,15.41
2023-05-07T01:26:14.716Z,15.33
2023-05-07T01:28:45.978Z,15.31
2023-05-07T01:31:14.969Z,15.25
2023-05-07T01:33:44.794Z,15.21
2023-05-07T01:36:14.434Z,15.20
2023-05-07T01:38:43.485Z,15.23
2023-05-07T01:41:12.401Z,15.22
2023-05-07T01:43:42.488Z,15.14
2023-05-07T01:46:11.518Z,15.12
2023-05-07T01:48:39.822Z,15.09
2023-05-07T01:51:08.793Z,15.02
2023-05-07T01:53:41.700Z,14.97
2023-05-07T01:56:09.556Z,14.93
2023-05-07T01:58:39.426Z,14.88
2023-05-07T02:01:06.953Z,14.81
2023-05-07T02:03:34.720Z,14.79
2023-05-07T02:06:10.010Z,14.77
2023-05-07T02:08:40.154Z,14.72
2023-05-07T02:11:07.682Z,14.72
2023-05-07T02:13:36.878Z,14.75
2023-05-07T02:16:05.305Z,14.74
2023-05-07T02:18:33.146Z,14.65
2023-05-07T02:21:00.683Z,14.61
2023-05-07T02:23:28.319Z,14.58
2023-05-07T02:25:55.913Z,14.56
2023-05-07T02:28:23.628Z,14.59
2023-05-07T02:31:01.846Z,14.62
2023-05-07T02:33:30.927Z,14.58
2023-05-07T02:36:07.005Z,14.64
2023-05-07T02:38:35.893Z,14.67
2023-05-07T02:41:03.474Z,14.76
2023-05-07T02:43:31.101Z,14.87
2023-05-07T02:46:08.845Z,14.87
2023-05-07T02:48:40.128Z,14.86
2023-05-07T02:51:07.701Z,14.87
2023-05-07T02:53:36.689Z,14.92
2023-05-07T02:56:04.496Z,14.94
2023-05-07T02:58:31.966Z,14.91
2023-05-07T03:01:01.365Z,14.93
2023-05-07T03:03:34.125Z,14.92
2023-05-07T03:06:02.313Z,14.96
2023-05-07T03:08:29.785Z,14.97
2023-05-07T03:10:57.480Z,14.95
2023-05-07T03:13:25.101Z,14.96
2023-05-07T03:15:53.657Z,14.98
2023-05-07T03:18:21.295Z,14.98
2023-05-07T03:20:49.776Z,14.97
2023-05-07T03:23:18.870Z,15.00
2023-05-07T03:25:46.502Z,15.01
2023-05-07T03:28:13.987Z,14.97
2023-05-07T03:30:47.792Z,15.07
2023-05-07T03:33:15.697Z,14.96
2023-05-07T03:35:43.288Z,14.98
2023-05-07T03:38:12.571Z,14.94
2023-05-07T03:40:40.018Z,14.98
2023-05-07T03:43:07.729Z,14.96
2023-05-07T03:45:38.268Z,15.02
2023-05-07T03:48:11.401Z,15.00
2023-05-07T03:50:39.334Z,14.94
2023-05-07T03:53:07.429Z,14.97
2023-05-07T03:55:39.851Z,14.98
2023-05-07T03:58:07.541Z,15.02
2023-05-07T04:00:39.249Z,15.01
2023-05-07T04:03:16.431Z,15.03
2023-05-07T04:05:44.148Z,14.98
2023-05-07T04:08:11.784Z,15.03
2023-05-07T04:10:42.600Z,15.00
2023-05-07T04:13:12.052Z,14.97
2023-05-07T04:15:39.625Z,15.02
2023-05-07T04:18:10.893Z,15.02
2023-05-07T04:20:39.627Z,15.07
2023-05-07T04:23:11.345Z,15.05
2023-05-07T04:25:39.535Z,14.99
2023-05-07T04:28:27.235Z,15.05
2023-05-07T04:30:55.078Z,14.98
2023-05-07T04:33:23.710Z,14.97
2023-05-07T04:35:51.854Z,14.98
2023-05-07T04:38:19.511Z,14.99
2023-05-07T04:40:49.626Z,15.01
2023-05-07T04:43:21.798Z,15.00
2023-05-07T04:45:53.371Z,14.99
2023-05-07T04:48:23.316Z,14.99
2023-05-07T04:50:52.410Z,15.04
2023-05-07T04:53:21.212Z,15.05
2023-05-07T04:55:49.720Z,15.04
2023-05-07T04:58:17.425Z,15.04
2023-05-07T05:00:47.844Z,15.02
2023-05-07T05:03:15.532Z,15.00
2023-05-07T05:05:43.251Z,14.98
2023-05-07T05:08:10.885Z,14.97
2023-05-07T05:10:42.690Z,15.00
2023-05-07T05:13:13.781Z,15.00
2023-05-07T05:15:42.723Z,15.02
2023-05-07T05:18:10.462Z,15.01
2023-05-07T05:20:38.473Z,15.04
2023-05-07T05:23:07.042Z,15.08
2023-05-07T05:25:34.865Z,15.10
2023-05-07T05:28:02.807Z,15.09
2023-05-07T05:30:32.112Z,15.12
2023-05-07T05:32:59.657Z,15.14
2023-05-07T05:35:28.519Z,15.19
2023-05-07T05:37:57.472Z,15.22
2023-05-07T05:40:25.100Z,15.26
2023-05-07T05:42:52.547Z,15.24
2023-05-07T05:45:20.364Z,15.27
2023-05-07T05:47:48.039Z,15.27
2023-05-07T05:50:15.862Z,15.31
2023-05-07T05:52:43.315Z,15.30
2023-05-07T05:55:11.765Z,15.25
2023-05-07T05:57:39.712Z,15.27
2023-05-07T06:00:09.381Z,15.30
2023-05-07T06:02:46.141Z,15.40
2023-05-07T06:05:19.125Z,15.50
2023-05-07T06:07:48.703Z,15.54
2023-05-07T06:10:16.871Z,15.60
2023-05-07T06:12:44.762Z,15.61
2023-05-07T06:15:12.729Z,15.61
2023-05-07T06:17:41.526Z,15.65
2023-05-07T06:20:11.332Z,15.78
2023-05-07T06:22:40.489Z,15.92
2023-05-07T06:25:09.694Z,16.08
2023-05-07T06:27:38.350Z,16.31
2023-05-07T06:30:06.555Z,16.74
2023-05-07T06:32:34.227Z,17.34
2023-05-07T06:35:01.798Z,17.78
2023-05-07T06:37:29.470Z,17.97
2023-05-07T06:40:02.143Z,17.99
2023-05-07T06:42:31.701Z,17.90
2023-05-07T06:45:07.253Z,17.78
2023-05-07T06:47:35.039Z,17.65
2023-05-07T06:50:03.059Z,17.47
2023-05-07T06:52:33.650Z,17.27
2023-05-07T06:55:01.365Z,17.15
2023-05-07T06:57:28.913Z,17.06
2023-05-07T06:59:56.435Z,17.04
2023-05-07T07:02:24.133Z,17.04
2023-05-07T07:04:52.013Z,17.02
2023-05-07T07:07:20.660Z,16.97
2023-05-07T07:09:50.807Z,16.80
2023-05-07T07:12:19.946Z,16.73
2023-05-07T07:14:47.357Z,16.71
2023-05-07T07:17:15.779Z,16.61
2023-05-07T07:19:43.561Z,16.48
2023-05-07T07:22:12.313Z,16.37
2023-05-07T07:24:39.975Z,16.35
2023-05-07T07:27:09.890Z,16.33
2023-05-07T07:29:37.395Z,16.27
2023-05-07T07:32:05.248Z,16.34
2023-05-07T07:34:33.358Z,16.34
2023-05-07T07:37:06.454Z,16.28
2023-05-07T07:39:39.431Z,16.24
2023-05-07T07:42:08.934Z,16.19
2023-05-07T07:44:41.423Z,16.17
2023-05-07T07:47:11.601Z,16.33
2023-05-07T07:49:39.341Z,16.27
2023-05-07T07:52:09.001Z,16.26
2023-05-07T07:54:38.102Z,16.31
2023-05-07T07:57:08.117Z,16.34
2023-05-07T07:59:36.188Z,16.33
2023-05-07T08:02:03.760Z,16.41
2023-05-07T08:04:34.279Z,16.45
2023-05-07T08:07:05.231Z,16.46
2023-05-07T08:09:36.362Z,16.50
2023-05-07T08:12:06.791Z,16.56
2023-05-07T08:14:37.587Z,16.62
2023-05-07T08:17:06.950Z,16.68
2023-05-07T08:19:36.152Z,16.71
2023-05-07T08:22:05.553Z,16.73
2023-05-07T08:24:35.490Z,16.78
2023-05-07T08:27:02.992Z,16.79
2023-05-07T08:29:30.788Z,16.79
2023-05-07T08:31:58.787Z,16.78
2023-05-07T08:34:27.893Z,16.73
2023-05-07T08:36:57.680Z,16.73
2023-05-07T08:39:26.070Z,16.78
2023-05-07T08:41:58.372Z,16.96
2023-05-07T08:44:31.209Z,17.20
2023-05-07T08:47:00.127Z,17.64
2023-05-07T08:49:29.192Z,18.40
2023-05-07T08:51:56.914Z,19.47
2023-05-07T08:54:27.093Z,20.39
2023-05-07T08:56:55.334Z,21.38
2023-05-07T08:59:23.414Z,22.02
2023-05-07T09:01:51.257Z,22.69
2023-05-07T09:04:19.251Z,22.99
2023-05-07T09:06:49.201Z,22.96
2023-05-07T09:09:19.955Z,22.86
2023-05-07T09:11:48.001Z,22.52
2023-05-07T09:14:18.866Z,22.14
2023-05-07T09:16:47.772Z,21.95
2023-05-07T09:19:15.664Z,21.85
2023-05-07T09:21:46.590Z,21.78
2023-05-07T09:24:17.364Z,21.66
2023-05-07T09:26:45.752Z,21.44
2023-05-07T09:29:18.200Z,21.38
2023-05-07T09:31:46.442Z,21.32
2023-05-07T09:34:17.348Z,21.51
2023-05-07T09:36:46.675Z,21.74
2023-05-07T09:39:15.063Z,21.91
2023-05-07T09:41:47.462Z,21.86
2023-05-07T09:44:23.041Z,21.75
2023-05-07T09:46:56.350Z,21.43
2023-05-07T09:49:37.375Z,21.24
2023-05-07T09:52:10.219Z,21.07
2023-05-07T09:54:45.020Z,20.92
2023-05-07T09:57:15.165Z,20.74
2023-05-07T09:59:47.221Z,20.61
2023-05-07T10:02:21.236Z,20.54
2023-05-07T10:04:53.890Z,20.47
2023-05-07T10:07:26.558Z,20.32
2023-05-07T10:10:00.509Z,20.23
2023-05-07T10:12:40.271Z,19.99
2023-05-07T10:15:15.726Z,19.79
2023-05-07T10:17:49.563Z,19.65
2023-05-07T10:20:17.946Z,19.55
2023-05-07T10:22:49.735Z,19.64
2023-05-07T10:25:31.568Z,19.74
2023-05-07T10:28:09.859Z,19.95
2023-05-07T10:31:16.100Z,20.05
2023-05-07T10:33:49.471Z,20.13
2023-05-07T10:36:19.449Z,20.21
2023-05-07T10:38:48.191Z,20.25
2023-05-07T10:41:19.709Z,20.23
2023-05-07T10:43:48.363Z,20.27
2023-05-07T10:46:26.802Z,20.28
2023-05-07T10:49:09.304Z,20.19
2023-05-07T10:51:46.918Z,19.99
2023-05-07T10:54:28.432Z,19.78
2023-05-07T10:57:48.035Z,19.63
2023-05-07T11:00:37.997Z,19.52
2023-05-07T11:03:09.027Z,19.42
2023-05-07T11:05:46.670Z,19.31
2023-05-07T11:08:53.175Z,19.27
2023-05-07T11:11:47.952Z,19.30
2023-05-07T11:14:42.333Z,19.38
2023-05-07T11:17:13.988Z,19.61
2023-05-07T11:19:56.164Z,19.85
2023-05-07T11:22:49.841Z,20.28
2023-05-07T11:25:44.112Z,20.61
2023-05-07T11:28:18.115Z,20.48
2023-05-07T11:30:54.037Z,20.53
2023-05-07T11:33:23.581Z,20.42
2023-05-07T11:35:57.249Z,20.46
2023-05-07T11:38:32.256Z,20.61
2023-05-07T11:41:05.280Z,20.74
2023-05-07T11:43:33.919Z,20.68
2023-05-07T11:46:10.257Z,20.59
2023-05-07T11:48:38.440Z,20.43
2023-05-07T11:51:07.632Z,20.24
2023-05-07T11:53:43.746Z,20.04
2023-05-07T11:56:16.685Z,19.85
2023-05-07T11:58:46.461Z,19.67
2023-05-07T12:01:15.008Z,19.64
2023-05-07T12:03:44.150Z,19.61
2023-05-07T12:06:12.877Z,19.52
2023-05-07T12:08:42.096Z,19.46
2023-05-07T12:11:14.006Z,19.46
2023-05-07T12:13:42.565Z,19.45
2023-05-07T12:16:10.450Z,19.50
2023-05-07T12:18:38.896Z,19.47
2023-05-07T12:21:07.768Z,19.36
2023-05-07T12:23:37.502Z,19.26
2023-05-07T12:26:07.374Z,19.22
2023-05-07T12:28:40.069Z,19.22
2023-05-07T12:31:08.693Z,19.32
2023-05-07T12:33:37.033Z,19.51
2023-05-07T12:36:08.684Z,19.76
2023-05-07T12:38:41.079Z,20.03
2023-05-07T12:41:11.042Z,20.17
2023-05-07T12:43:39.346Z,20.19
2023-05-07T12:46:09.097Z,20.21
2023-05-07T12:48:45.827Z,20.18
2023-05-07T12:51:14.692Z,20.01
2023-05-07T12:53:45.645Z,20.01
2023-05-07T12:56:13.444Z,20.10
2023-05-07T12:58:40.950Z,20.09
2023-05-07T13:01:11.175Z,19.96
2023-05-07T13:03:39.864Z,20.01
2023-05-07T13:06:11.150Z,20.35
2023-05-07T13:08:42.522Z,20.86
2023-05-07T13:11:11.391Z,21.19
2023-05-07T13:13:40.921Z,21.53
2023-05-07T13:16:10.652Z,21.83
2023-05-07T13:18:40.793Z,22.03
2023-05-07T13:21:14.438Z,22.29
2023-05-07T13:23:42.329Z,22.21
2023-05-07T13:26:22.418Z,22.02
2023-05-07T13:28:55.218Z,21.59
2023-05-07T13:31:22.780Z,21.51
2023-05-07T13:33:50.696Z,21.51
2023-05-07T13:36:18.157Z,21.57
2023-05-07T13:38:45.694Z,21.58
2023-05-07T13:41:14.223Z,21.46
2023-05-07T13:43:41.726Z,21.49
2023-05-07T13:46:09.518Z,21.51
2023-05-07T13:48:37.588Z,21.62
2023-05-07T13:51:05.709Z,21.62
2023-05-07T13:53:33.206Z,21.79
2023-05-07T13:56:00.631Z,21.84
2023-05-07T13:58:28.038Z,21.81
2023-05-07T14:00:55.605Z,21.85
2023-05-07T14:03:23.395Z,21.91
2023-05-07T14:05:50.919Z,21.86
2023-05-07T14:08:21.023Z,21.68
2023-05-07T14:10:48.479Z,21.63
2023-05-07T14:13:16.208Z,21.56
2023-05-07T14:15:47.571Z,21.50
2023-05-07T14:18:15.411Z,21.47
2023-05-07T14:20:44.950Z,21.38
2023-05-07T14:23:12.546Z,21.35
2023-05-07T14:25:40.079Z,21.38
2023-05-07T14:28:08.876Z,21.55
2023-05-07T14:30:36.653Z,21.62
2023-05-07T14:33:04.438Z,21.66
2023-05-07T14:35:31.961Z,21.50
2023-05-07T14:37:59.484Z,21.34
2023-05-07T14:40:27.006Z,21.35
2023-05-07T14:42:54.636Z,21.46
2023-05-07T14:45:22.601Z,21.45
2023-05-07T14:47:50.532Z,21.27
2023-05-07T14:50:17.982Z,21.22
2023-05-07T14:52:45.450Z,21.26
2023-05-07T14:55:13.376Z,21.21
2023-05-07T14:57:41.505Z,21.30
2023-05-07T15:00:10.699Z,21.34
2023-05-07T15:02:38.402Z,21.35
2023-05-07T15:05:06.481Z,21.32
2023-05-07T15:07:35.433Z,21.36
2023-05-07T15:10:02.929Z,21.33
2023-05-07T15:12:31.005Z,21.19
2023-05-07T15:14:58.495Z,20.92
2023-05-07T15:17:26.109Z,20.61
2023-05-07T15:19:54.464Z,20.58
2023-05-07T15:22:22.785Z,20.58
2023-05-07T15:24:50.202Z,20.56
2023-05-07T15:27:18.326Z,20.42
2023-05-07T15:29:46.108Z,20.31
2023-05-07T15:32:14.513Z,20.32
2023-05-07T15:34:42.432Z,20.47
2023-05-07T15:37:10.036Z,20.48
2023-05-07T15:39:37.417Z,20.49
2023-05-07T15:42:05.049Z,20.47
2023-05-07T15:44:35.535Z,20.53
2023-05-07T15:47:03.396Z,20.66
2023-05-07T15:49:31.210Z,20.68
2023-05-07T15:51:58.900Z,20.72
2023-05-07T15:54:26.500Z,20.81
2023-05-07T15:56:53.947Z,20.80
2023-05-07T15:59:21.786Z,20.72
2023-05-07T16:01:50.050Z,20.73
2023-05-07T16:04:17.603Z,20.83
2023-05-07T16:06:47.568Z,20.82
2023-05-07T16:09:15.367Z,20.78
2023-05-07T16:11:42.997Z,20.67
2023-05-07T16:14:10.441Z,20.61
2023-05-07T16:16:39.551Z,20.53
2023-05-07T16:19:07.419Z,20.49
2023-05-07T16:21:35.625Z,20.53
2023-05-07T16:24:03.160Z,20.49
2023-05-07T16:26:30.960Z,20.55
2023-05-07T16:28:58.919Z,20.40
2023-05-07T16:31:26.563Z,20.33
2023-05-07T16:33:54.121Z,20.16
2023-05-07T16:36:21.625Z,20.00
2023-05-07T16:38:49.066Z,19.97
2023-05-07T16:41:16.630Z,19.89
2023-05-07T16:43:44.083Z,19.78
2023-05-07T16:46:11.610Z,19.74
2023-05-07T16:48:39.218Z,19.67
2023-05-07T16:51:08.221Z,19.60
2023-05-07T16:53:36.054Z,19.46
2023-05-07T16:56:06.755Z,19.42
2023-05-07T16:58:34.551Z,19.36
2023-05-07T17:01:02.702Z,19.44
2023-05-07T17:03:32.311Z,19.43
2023-05-07T17:06:00.053Z,19.44
2023-05-07T17:08:27.550Z,19.38
2023-05-07T17:10:55.108Z,19.40
2023-05-07T17:13:22.693Z,19.40
2023-05-07T17:15:50.430Z,19.37
2023-05-07T17:18:17.903Z,19.33
2023-05-07T17:20:45.412Z,19.26
2023-05-07T17:23:14.040Z,19.15
2023-05-07T17:25:45.692Z,19.03
2023-05-07T17:28:13.655Z,18.97
2023-05-07T17:30:41.895Z,18.96
2023-05-07T17:33:20.164Z,18.86
2023-05-07T17:35:48.905Z,18.70
2023-05-07T17:38:16.491Z,18.70
2023-05-07T17:40:43.972Z,18.84
2023-05-07T17:43:11.555Z,18.80
2023-05-07T17:45:39.216Z,18.74
2023-05-07T17:48:07.005Z,18.76
2023-05-07T17:50:34.495Z,18.76
2023-05-07T17:53:02.150Z,18.67
2023-05-07T17:55:32.832Z,18.71
2023-05-07T17:58:00.574Z,18.76
2023-05-07T18:00:28.071Z,18.43
2023-05-07T18:02:55.699Z,18.27
2023-05-07T18:05:23.292Z,18.17
2023-05-07T18:07:50.853Z,18.03
2023-05-07T18:10:19.958Z,17.87
2023-05-07T18:12:47.453Z,17.70
2023-05-07T18:15:15.176Z,17.57
2023-05-07T18:17:42.657Z,17.60
2023-05-07T18:20:11.814Z,17.55
2023-05-07T18:22:39.644Z,17.54
2023-05-07T18:25:07.880Z,17.39
2023-05-07T18:27:35.603Z,17.31
2023-05-07T18:30:03.449Z,17.20
2023-05-07T18:32:30.923Z,17.14
2023-05-07T18:34:58.625Z,17.17
2023-05-07T18:37:26.848Z,17.11
2023-05-07T18:39:54.438Z,17.15
2023-05-07T18:42:21.919Z,17.06
2023-05-07T18:44:50.604Z,17.13
2023-05-07T18:47:18.163Z,17.12
2023-05-07T18:49:45.611Z,17.03
2023-05-07T18:52:13.057Z,16.92
2023-05-07T18:54:40.646Z,16.73
2023-05-07T18:57:08.062Z,16.60
2023-05-07T18:59:35.618Z,16.49
2023-05-07T19:02:03.608Z,16.50
2023-05-07T19:04:31.258Z,16.44
2023-05-07T19:06:58.836Z,16.27
2023-05-07T19:09:26.305Z,16.15
2023-05-07T19:11:55.360Z,16.14
2023-05-07T19:14:22.832Z,16.13
2023-05-07T19:16:50.261Z,16.18
2023-05-07T19:19:17.777Z,16.25
2023-05-07T19:21:45.317Z,16.10
2023-05-07T19:24:12.863Z,16.05
2023-05-07T19:26:41.109Z,16.02
2023-05-07T19:29:17.576Z,15.97
2023-05-07T19:31:46.057Z,15.77
2023-05-07T19:34:14.283Z,15.74
2023-05-07T19:36:42.006Z,15.62
2023-05-07T19:39:09.580Z,15.63
2023-05-07T19:41:37.213Z,15.54
2023-05-07T19:44:04.940Z,15.45
2023-05-07T19:46:32.564Z,15.30
2023-05-07T19:49:01.501Z,15.36
2023-05-07T19:51:32.519Z,15.34
2023-05-07T19:54:00.298Z,15.26
2023-05-07T19:56:27.925Z,15.30
2023-05-07T19:58:55.630Z,15.41
2023-05-07T20:01:23.095Z,15.10
2023-05-07T20:03:50.709Z,15.10
2023-05-07T20:06:18.219Z,15.00
2023-05-07T20:08:45.803Z,14.96
2023-05-07T20:11:14.270Z,14.96
2023-05-07T20:13:41.889Z,14.82
2023-05-07T20:16:09.585Z,14.76
2023-05-07T20:18:37.301Z,14.75
2023-05-07T20:21:05.209Z,14.80
2023-05-07T20:23:33.357Z,14.74
2023-05-07T20:26:00.970Z,14.65
2023-05-07T20:28:28.591Z,14.60
2023-05-07T20:30:56.097Z,14.52
2023-05-07T20:33:23.701Z,14.51
2023-05-07T20:35:51.093Z,14.42
2023-05-07T20:38:18.727Z,14.46
2023-05-07T20:40:46.220Z,14.50
2023-05-07T20:43:13.733Z,14.60
2023-05-07T20:45:41.277Z,14.71
2023-05-07T20:48:08.757Z,14.59
2023-05-07T20:50:36.313Z,14.59
2023-05-07T20:53:03.859Z,14.50
2023-05-07T20:55:31.336Z,14.35
2023-05-07T20:57:58.840Z,14.40
2023-05-07T21:00:26.280Z,14.37
2023-05-07T21:02:54.087Z,14.49
2023-05-07T21:05:21.811Z,14.50
2023-05-07T21:07:49.333Z,14.53
2023-05-07T21:10:16.820Z,14.52
2023-05-07T21:12:44.327Z,14.35
2023-05-07T21:15:14.142Z,14.31
2023-05-07T21:17:41.631Z,14.22
2023-05-07T21:20:09.477Z,14.25
2023-05-07T21:22:37.130Z,14.51
2023-05-07T21:25:04.943Z,14.56
2023-05-07T21:27:32.483Z,14.41
2023-05-07T21:30:04.883Z,14.31
2023-05-07T21:32:32.682Z,14.38
2023-05-07T21:35:01.026Z,14.43
2023-05-07T21:37:28.692Z,14.45
2023-05-07T21:39:56.294Z,14.55
2023-05-07T21:42:25.347Z,14.60
2023-05-07T21:44:52.771Z,14.60
2023-05-07T21:47:20.424Z,14.45
2023-05-07T21:49:47.930Z,14.44
2023-05-07T21:52:17.193Z,14.45
2023-05-07T21:54:44.639Z,14.37
2023-05-07T21:57:12.122Z,14.26
2023-05-07T21:59:39.487Z,14.14
2023-05-07T22:02:06.988Z,14.04
2023-05-07T22:04:34.488Z,13.93
2023-05-07T22:07:02.127Z,13.86
2023-05-07T22:09:29.571Z,13.91
2023-05-07T22:11:57.101Z,14.00
2023-05-07T22:14:24.577Z,13.91
2023-05-07T22:16:52.144Z,13.89
2023-05-07T22:19:19.757Z,14.09
2023-05-07T22:21:47.264Z,13.88
2023-05-07T22:24:15.457Z,13.89
2023-05-07T22:26:42.982Z,13.90
2023-05-07T22:29:10.410Z,14.07
2023-05-07T22:31:37.926Z,14.03
2023-05-07T22:34:05.413Z,13.85
2023-05-07T22:36:33.366Z,13.71
2023-05-07T22:39:01.532Z,13.65
2023-05-07T22:41:29.024Z,13.78
2023-05-07T22:43:56.445Z,13.80
2023-05-07T22:46:24.077Z,13.63
2023-05-07T22:48:51.811Z,13.63
2023-05-07T22:51:19.337Z,13.66
2023-05-07T22:53:46.752Z,13.77
2023-05-07T22:56:14.409Z,13.96
2023-05-07T22:58:41.792Z,14.15
2023-05-07T23:01:14.046Z,14.15
2023-05-07T23:03:41.732Z,14.19
2023-05-07T23:06:09.404Z,14.23
2023-05-07T23:08:36.982Z,14.02
2023-05-07T23:11:04.526Z,13.93
2023-05-07T23:13:33.843Z,13.86
2023-05-07T23:16:01.385Z,13.83
2023-05-07T23:18:30.349Z,13.87
2023-05-07T23:20:57.918Z,13.94
2023-05-07T23:23:25.417Z,14.08
2023-05-07T23:25:53.284Z,14.16
2023-05-07T23:28:20.768Z,14.15
2023-05-07T23:30:48.310Z,14.09
2023-05-07T23:33:16.053Z,14.12
2023-05-07T23:35:43.529Z,14.25
2023-05-07T23:38:11.000Z,14.28
2023-05-07T23:40:38.353Z,14.41
2023-05-07T23:43:05.894Z,14.40
2023-05-07T23:45:33.498Z,14.44
2023-05-07T23:48:01.091Z,14.46
2023-05-07T23:50:28.490Z,14.51
2023-05-07T23:52:55.900Z,14.52
2023-05-07T23:55:23.384Z,14.48
2023-05-07T23:57:51.111Z,14.38
